Time;durP1;ratioP1;P1;durP2;ratioP2;P2;SDS_P1;SDS_P2;PMS_P1;PMS_P2;Temp;Humidity;BMP_temperature;BMP_pressure;BME280_temperature;BME280_humidity;BME280_pressure;Samples;Min_cycle;Max_cycle;Signal;HPM_P1;HPM_P2
2023/11/21 00:00:32;;;;;;;9.23;5.00;;;;;;;5.93;85.97;98171.91;5049087;28;20043;-77
2023/11/21 00:02:57;;;;;;;9.25;4.68;;;;;;;5.91;85.66;98177.44;5054605;28;20025;-78
2023/11/21 00:05:23;;;;;;;9.85;4.38;;;;;;;5.87;85.62;98184.25;5048493;28;20250;-77
2023/11/21 00:07:49;;;;;;;8.13;4.70;;;;;;;5.85;85.72;98170.41;5050243;28;20024;-78
2023/11/21 00:10:15;;;;;;;7.55;4.50;;;;;;;5.80;86.45;98174.78;5056881;28;20044;-78
2023/11/21 00:12:41;;;;;;;8.90;4.05;;;;;;;5.88;86.07;98185.84;5050300;28;20155;-78
2023/11/21 00:15:11;;;;;;;8.85;4.82;;;;;;;5.82;85.48;98181.44;5050361;28;20040;-78
2023/11/21 00:17:37;;;;;;;12.23;4.20;;;;;;;5.87;85.71;98184.25;5050611;28;20536;-78
2023/11/21 00:20:06;;;;;;;8.30;4.43;;;;;;;5.88;85.63;98180.53;5045266;28;20044;-78
2023/11/21 00:22:32;;;;;;;6.68;4.50;;;;;;;5.84;85.60;98178.59;5060951;28;20025;-79
2023/11/21 00:24:57;;;;;;;7.32;3.78;;;;;;;5.80;85.79;98180.06;5042305;28;20063;-79
2023/11/21 00:27:23;;;;;;;6.10;4.38;;;;;;;5.79;85.67;98176.63;5049564;28;20504;-77
2023/11/21 00:29:48;;;;;;;11.27;4.88;;;;;;;5.82;85.01;98176.16;5046118;28;20044;-78
2023/11/21 00:32:13;;;;;;;10.65;4.53;;;;;;;5.78;85.17;98180.31;5052386;28;20036;-78
2023/11/21 00:34:39;;;;;;;8.35;4.68;;;;;;;5.78;85.70;98180.31;5049937;28;20123;-78
2023/11/21 00:37:05;;;;;;;8.73;4.13;;;;;;;5.77;85.39;98178.69;5038213;28;20028;-77
2023/11/21 00:39:30;;;;;;;11.15;4.13;;;;;;;5.75;84.95;98185.25;5046727;28;20079;-77
2023/11/21 00:41:55;;;;;;;8.93;5.13;;;;;;;5.64;85.69;98194.84;5045949;28;20025;-78
2023/11/21 00:44:21;;;;;;;8.45;4.35;;;;;;;5.62;85.23;98183.69;5042359;28;20041;-78
2023/11/21 00:46:47;;;;;;;11.60;4.43;;;;;;;5.67;85.47;98196.22;5044710;28;20040;-81
2023/11/21 00:49:13;;;;;;;6.38;4.20;;;;;;;5.68;84.75;98197.84;5047293;28;20025;-76
2023/11/21 00:51:38;;;;;;;13.00;4.53;;;;;;;5.68;85.08;98195.19;5026015;28;20021;-75
2023/11/21 00:54:04;;;;;;;8.57;4.93;;;;;;;5.64;85.05;98199.31;5041144;28;20111;-76
2023/11/21 00:56:29;;;;;;;11.13;4.78;;;;;;;5.68;85.21;98209.22;5037819;28;20025;-77
2023/11/21 00:58:55;;;;;;;7.30;4.53;;;;;;;5.80;85.31;98203.91;5055325;28;20037;-77
2023/11/21 01:01:24;;;;;;;10.85;5.15;;;;;;;5.69;84.79;98202.88;5050351;28;20029;-76
2023/11/21 01:03:50;;;;;;;10.02;5.07;;;;;;;5.68;85.06;98203.91;5054055;28;20137;-76
2023/11/21 01:06:15;;;;;;;8.35;5.00;;;;;;;5.70;84.89;98214.28;5049530;28;20254;-76
2023/11/21 01:08:41;;;;;;;9.85;6.18;;;;;;;5.66;84.67;98207.81;5052234;28;20017;-77
2023/11/21 01:11:11;;;;;;;10.25;5.50;;;;;;;5.65;84.61;98216.81;5045432;28;20623;-77
2023/11/21 01:13:37;;;;;;;11.27;5.65;;;;;;;5.65;84.58;98222.13;5043809;28;20036;-78
2023/11/21 01:16:03;;;;;;;10.07;6.45;;;;;;;5.68;85.11;98221.66;5053091;28;20396;-77
2023/11/21 01:18:29;;;;;;;8.38;6.05;;;;;;;5.66;85.41;98223.72;5048698;28;20068;-77
2023/11/21 01:20:54;;;;;;;20.60;9.60;;;;;;;4.63;86.11;98233.19;5045339;28;20512;-78
2023/11/21 01:23:20;;;;;;;21.02;10.18;;;;;;;4.14;88.79;98234.22;5042403;28;20029;-79
2023/11/21 01:25:46;;;;;;;15.38;8.70;;;;;;;4.89;89.90;98243.34;5054264;28;20029;-78
2023/11/21 01:28:11;;;;;;;14.32;8.23;;;;;;;5.47;87.28;98238.94;5054016;28;20025;-79
2023/11/21 01:30:37;;;;;;;15.27;7.30;;;;;;;5.53;85.27;98230.06;5049413;28;20089;-78
2023/11/21 01:33:02;;;;;;;14.70;7.15;;;;;;;5.64;85.00;98236.38;5057054;28;20086;-78
2023/11/21 01:35:28;;;;;;;16.15;7.35;;;;;;;4.01;87.66;98237.84;5061424;28;20055;-78
2023/11/21 01:37:53;;;;;;;11.55;6.43;;;;;;;3.59;91.12;98244.81;5053459;28;20067;-77
2023/11/21 01:40:18;;;;;;;15.88;6.90;;;;;;;4.61;91.08;98248.44;5048281;28;20037;-77
2023/11/21 01:42:44;;;;;;;9.40;6.40;;;;;;;5.03;89.74;98248.22;5052608;28;20032;-77
2023/11/21 01:45:12;;;;;;;10.50;6.50;;;;;;;5.42;87.20;98241.44;5062792;28;20052;-78
2023/11/21 01:47:38;;;;;;;9.70;6.03;;;;;;;5.36;86.77;98244.22;5043186;28;20077;-79
2023/11/21 01:50:06;;;;;;;8.07;5.07;;;;;;;4.13;89.56;98248.47;5051024;28;20063;-78
2023/11/21 01:52:34;;;;;;;10.95;5.97;;;;;;;3.85;92.75;98251.63;5042603;28;20067;-78
2023/11/21 01:55:00;;;;;;;13.85;6.20;;;;;;;3.78;93.30;98251.69;5047390;28;20531;-76
2023/11/21 01:57:26;;;;;;;12.75;6.68;;;;;;;4.61;93.83;98253.75;5050360;28;20016;-77
2023/11/21 01:59:54;;;;;;;11.95;5.85;;;;;;;4.08;92.11;98251.78;5051270;28;20385;-76
2023/11/21 02:02:19;;;;;;;12.10;6.55;;;;;;;4.71;92.38;98254.81;5034407;28;20032;-76
2023/11/21 02:04:45;;;;;;;13.93;6.93;;;;;;;4.22;92.03;98249.75;5045755;28;20041;-76
2023/11/21 02:07:10;;;;;;;14.98;6.20;;;;;;;3.94;94.22;98266.16;5051751;28;20040;-76
2023/11/21 02:09:38;;;;;;;13.68;6.35;;;;;;;5.05;92.26;98269.13;5052567;28;20029;-78
2023/11/21 02:12:04;;;;;;;14.93;7.03;;;;;;;4.76;90.50;98270.00;5049080;28;20037;-77
2023/11/21 02:14:30;;;;;;;12.65;6.47;;;;;;;4.24;92.77;98271.47;5047106;28;20037;-77
2023/11/21 02:16:57;;;;;;;14.38;7.03;;;;;;;4.38;93.64;98263.19;5054031;28;20032;-77
2023/11/21 02:19:25;;;;;;;11.55;7.88;;;;;;;5.24;91.90;98268.81;5046413;28;20033;-78
2023/11/21 02:21:51;;;;;;;11.35;5.25;;;;;;;4.80;90.46;98277.25;5050348;28;20037;-77
2023/11/21 02:24:21;;;;;;;9.75;5.50;;;;;;;5.27;91.00;98272.84;5052230;28;20033;-77
2023/11/21 02:26:48;;;;;;;11.18;5.32;;;;;;;4.86;91.77;98271.06;5050036;28;20033;-77
2023/11/21 02:29:13;;;;;;;12.95;6.47;;;;;;;4.71;92.64;98280.44;5051680;28;20111;-77
2023/11/21 02:31:47;;;;;;;12.48;5.82;;;;;;;5.27;91.72;98275.50;5050504;28;20147;-77
2023/11/21 02:34:14;;;;;;;10.82;6.38;;;;;;;4.65;91.96;98268.13;5048031;28;20025;-77
2023/11/21 02:36:39;;;;;;;7.72;5.15;;;;;;;4.69;93.69;98272.72;5044613;28;20026;-77
2023/11/21 02:39:07;;;;;;;8.75;5.65;;;;;;;5.19;92.42;98270.53;5049816;28;20043;-77
2023/11/21 02:41:32;;;;;;;7.68;5.57;;;;;;;5.49;90.73;98273.09;5040033;28;20342;-77
2023/11/21 02:43:58;;;;;;;6.13;4.95;;;;;;;5.54;90.36;98271.38;5049282;28;20037;-78
2023/11/21 02:46:23;;;;;;;7.10;4.25;;;;;;;5.52;90.67;98262.06;5049934;28;20523;-77
2023/11/21 02:48:50;;;;;;;10.13;5.03;;;;;;;5.61;89.46;98265.97;5047573;28;20032;-77
2023/11/21 02:51:15;;;;;;;9.60;4.47;;;;;;;5.76;88.32;98263.66;5048779;28;20033;-78
2023/11/21 02:53:40;;;;;;;11.13;6.03;;;;;;;5.42;88.92;98251.25;5045034;28;20115;-77
2023/11/21 02:56:07;;;;;;;7.47;5.35;;;;;;;4.84;90.38;98264.38;5048980;28;20087;-78
2023/11/21 02:58:32;;;;;;;7.28;4.20;;;;;;;5.44;90.31;98268.47;5053430;28;20056;-78
2023/11/21 03:00:57;;;;;;;10.32;4.50;;;;;;;5.60;88.20;98267.00;5055104;28;20107;-80
2023/11/21 03:03:24;;;;;;;11.65;5.50;;;;;;;5.56;88.20;98268.50;5052546;28;20036;-78
2023/11/21 03:05:49;;;;;;;5.32;4.75;;;;;;;5.50;88.73;98264.13;5057525;28;20049;-80
2023/11/21 03:08:15;;;;;;;17.48;6.80;;;;;;;4.87;88.23;98266.56;5051311;28;20040;-79
2023/11/21 03:10:40;;;;;;;10.52;5.20;;;;;;;4.87;90.79;98282.44;5054420;28;20055;-78
2023/11/21 03:13:05;;;;;;;7.00;5.50;;;;;;;5.35;88.33;98283.13;5054658;28;20123;-79
2023/11/21 03:15:32;;;;;;;6.95;5.10;;;;;;;5.51;88.76;98279.78;5026324;28;20029;-79
2023/11/21 03:17:58;;;;;;;12.20;5.78;;;;;;;5.41;88.72;98268.97;5051833;28;20394;-78
2023/11/21 03:20:23;;;;;;;10.23;6.95;;;;;;;5.15;88.01;98283.44;5054741;28;20020;-78
2023/11/21 03:22:48;;;;;;;20.40;6.95;;;;;;;4.14;89.72;98285.22;5049116;28;20024;-78
2023/11/21 03:25:17;;;;;;;9.63;6.35;;;;;;;4.32;90.62;98297.59;5049576;28;20154;-78
2023/11/21 03:27:43;;;;;;;10.15;6.60;;;;;;;5.06;89.73;98294.56;5049027;28;20386;-78
2023/11/21 03:30:09;;;;;;;9.07;5.93;;;;;;;5.27;88.59;98284.25;5043892;28;20083;-78
2023/11/21 03:32:35;;;;;;;13.73;5.72;;;;;;;5.21;87.43;98290.44;5050860;28;20084;-78
2023/11/21 03:35:02;;;;;;;9.88;5.18;;;;;;;5.30;88.27;98293.56;5054382;28;20056;-78
2023/11/21 03:37:27;;;;;;;8.00;5.55;;;;;;;5.51;86.98;98298.28;5051249;28;20023;-79
2023/11/21 03:39:53;;;;;;;7.88;4.90;;;;;;;5.53;85.93;98298.88;5057733;28;20028;-77
2023/11/21 03:42:18;;;;;;;9.27;6.22;;;;;;;5.47;86.34;98294.50;5040459;28;20036;-77
2023/11/21 03:44:44;;;;;;;26.98;12.70;;;;;;;4.79;86.91;98301.25;5044806;28;20031;-77
2023/11/21 03:47:09;;;;;;;13.88;7.72;;;;;;;5.25;87.56;98306.66;5041363;28;20088;-77
2023/11/21 03:49:34;;;;;;;21.17;10.98;;;;;;;5.46;86.23;98297.38;5052939;28;20508;-77
2023/11/21 03:52:00;;;;;;;22.40;10.10;;;;;;;5.61;86.08;98300.38;5032834;28;20094;-77
2023/11/21 03:54:25;;;;;;;23.05;11.02;;;;;;;5.45;86.38;98301.88;5041941;28;20066;-79
2023/11/21 03:56:52;;;;;;;25.52;11.48;;;;;;;5.53;85.84;98301.53;5050982;28;20029;-79
2023/11/21 03:59:17;;;;;;;30.30;13.23;;;;;;;5.47;86.53;98306.91;5051711;28;20037;-79
2023/11/21 04:01:42;;;;;;;28.27;12.60;;;;;;;5.52;86.78;98302.56;5048231;28;20473;-79
2023/11/21 04:04:08;;;;;;;25.45;12.75;;;;;;;5.51;86.49;98303.59;5054697;28;20436;-78
2023/11/21 04:06:33;;;;;;;26.88;12.45;;;;;;;5.56;87.02;98300.25;5047258;28;20127;-76
2023/11/21 04:08:59;;;;;;;23.52;12.45;;;;;;;5.50;86.48;98307.28;5049497;28;20111;-77
2023/11/21 04:11:24;;;;;;;26.25;12.88;;;;;;;5.44;86.42;98310.03;5042505;28;20124;-78
2023/11/21 04:13:49;;;;;;;22.80;12.52;;;;;;;4.75;89.43;98316.75;5031246;28;20040;-77
2023/11/21 04:16:15;;;;;;;25.77;12.55;;;;;;;4.82;90.16;98314.84;5051189;28;20028;-78
2023/11/21 04:18:40;;;;;;;19.20;12.60;;;;;;;4.54;90.99;98320.69;5045928;28;20548;-78
2023/11/21 04:21:06;;;;;;;21.83;10.88;;;;;;;4.85;89.52;98319.66;5049101;28;20036;-78
2023/11/21 04:23:32;;;;;;;22.00;11.23;;;;;;;5.24;88.68;98310.34;5046913;28;20025;-77
2023/11/21 04:25:57;;;;;;;20.98;11.57;;;;;;;5.33;87.99;98317.72;5049810;28;20440;-78
2023/11/21 04:28:24;;;;;;;16.08;9.88;;;;;;;5.31;88.65;98326.91;5048426;28;20084;-77
2023/11/21 04:30:50;;;;;;;20.73;11.45;;;;;;;4.59;90.35;98321.88;5042868;28;20100;-78
2023/11/21 04:33:16;;;;;;;34.22;17.75;;;;;;;4.20;92.00;98321.31;5054987;28;20052;-79
2023/11/21 04:35:41;;;;;;;20.83;11.63;;;;;;;4.23;93.86;98328.78;5056517;28;20086;-78
2023/11/21 04:38:06;;;;;;;20.25;11.45;;;;;;;4.94;91.47;98333.38;5058477;28;20107;-78
2023/11/21 04:40:32;;;;;;;21.70;12.18;;;;;;;4.22;92.56;98342.19;5055660;28;20056;-76
2023/11/21 04:42:57;;;;;;;17.83;10.30;;;;;;;4.97;91.74;98348.78;5037903;28;20074;-77
2023/11/21 04:45:23;;;;;;;19.17;10.80;;;;;;;4.29;91.81;98348.22;5067013;28;20058;-77
2023/11/21 04:47:48;;;;;;;23.88;11.13;;;;;;;4.36;93.55;98346.31;5059736;28;20920;-80
2023/11/21 04:50:14;;;;;;;21.20;10.93;;;;;;;5.21;91.92;98346.00;5053483;28;20082;-78
2023/11/21 04:52:39;;;;;;;17.73;10.00;;;;;;;5.47;89.79;98355.38;5061652;28;20024;-78
2023/11/21 04:55:06;;;;;;;22.63;10.63;;;;;;;5.52;88.36;98336.97;5053990;28;20072;-81
2023/11/21 04:57:32;;;;;;;17.05;10.15;;;;;;;5.53;88.46;98351.00;5060401;28;20421;-77
2023/11/21 04:59:57;;;;;;;23.27;13.30;;;;;;;5.03;88.49;98363.75;5049595;28;20081;-78
2023/11/21 05:02:23;;;;;;;26.75;13.68;;;;;;;4.69;89.66;98359.13;5047966;28;20388;-78
2023/11/21 05:04:48;;;;;;;21.55;10.75;;;;;;;4.88;91.57;98363.34;5051276;28;20036;-76
2023/11/21 05:07:14;;;;;;;19.95;10.63;;;;;;;5.28;89.41;98367.06;5054337;28;20025;-76
2023/11/21 05:09:46;;;;;;;17.15;10.68;;;;;;;4.83;90.33;98374.59;5056957;28;20163;-77
2023/11/21 05:12:12;;;;;;;26.40;13.43;;;;;;;4.08;92.82;98375.06;5053125;28;20501;-77
2023/11/21 05:14:38;;;;;;;28.17;13.18;;;;;;;3.92;94.58;98392.28;5039138;28;20127;-77
2023/11/21 05:17:04;;;;;;;22.77;10.85;;;;;;;4.15;94.75;98389.03;5051383;28;20135;-79
2023/11/21 05:19:29;;;;;;;20.33;11.35;;;;;;;4.63;94.54;98381.19;5049365;28;20029;-77
2023/11/21 05:21:55;;;;;;;26.92;13.90;;;;;;;4.89;92.19;98384.28;5050287;28;20029;-77
2023/11/21 05:24:20;;;;;;;25.35;11.27;;;;;;;5.06;91.96;98379.19;5049999;28;20045;-78
2023/11/21 05:26:45;;;;;;;19.70;10.52;;;;;;;5.12;92.18;98388.88;5053737;28;20068;-78
2023/11/21 05:29:11;;;;;;;24.73;12.32;;;;;;;5.08;90.37;98388.50;5041847;28;20048;-77
2023/11/21 05:31:36;;;;;;;18.15;10.20;;;;;;;5.35;89.66;98396.91;5048483;28;20075;-76
2023/11/21 05:34:04;;;;;;;17.55;10.23;;;;;;;5.21;89.82;98392.81;5048648;28;20028;-75
2023/11/21 05:36:30;;;;;;;34.75;14.52;;;;;;;4.79;91.55;98389.28;5047174;28;20435;-74
2023/11/21 05:38:55;;;;;;;29.35;14.20;;;;;;;4.79;91.34;98399.06;5051857;28;20041;-73
2023/11/21 05:41:21;;;;;;;29.15;15.70;;;;;;;4.37;93.23;98390.19;5053071;28;20032;-74
2023/11/21 05:43:46;;;;;;;29.98;13.35;;;;;;;4.17;94.48;98408.09;5051871;28;20131;-73
2023/11/21 05:46:13;;;;;;;25.27;14.60;;;;;;;4.05;94.57;98401.91;5050846;28;20036;-76
2023/11/21 05:48:38;;;;;;;20.30;11.70;;;;;;;4.86;94.19;98407.72;5046066;28;20036;-76
2023/11/21 05:51:08;;;;;;;20.00;10.57;;;;;;;4.86;93.42;98405.06;5052092;28;20473;-77
2023/11/21 05:53:33;;;;;;;19.52;11.32;;;;;;;4.76;93.43;98404.81;5038704;28;20504;-77
2023/11/21 05:55:58;;;;;;;19.02;11.23;;;;;;;5.05;92.51;98404.00;5045959;28;20037;-76
2023/11/21 05:58:24;;;;;;;21.73;11.50;;;;;;;5.00;92.88;98398.59;5039946;28;20036;-76
2023/11/21 06:00:49;;;;;;;21.52;11.93;;;;;;;5.18;91.72;98412.56;5040066;28;20133;-77
2023/11/21 06:03:15;;;;;;;16.77;10.75;;;;;;;5.11;91.98;98409.22;5043403;28;20127;-76
2023/11/21 06:05:40;;;;;;;18.38;11.07;;;;;;;5.24;89.99;98405.59;5049847;28;20031;-76
2023/11/21 06:08:07;;;;;;;20.35;12.00;;;;;;;4.87;91.85;98415.41;5045298;28;20029;-77
2023/11/21 06:10:32;;;;;;;22.23;12.52;;;;;;;4.49;93.18;98428.06;5044884;28;20039;-77
2023/11/21 06:12:58;;;;;;;27.30;13.02;;;;;;;4.38;94.05;98421.69;5052967;28;20024;-76
2023/11/21 06:15:23;;;;;;;24.02;10.45;;;;;;;4.54;95.43;98421.09;5051946;28;20498;-77
2023/11/21 06:17:52;;;;;;;23.73;11.88;;;;;;;4.87;93.88;98425.22;5047585;28;20035;-76
2023/11/21 06:20:18;;;;;;;30.60;12.90;;;;;;;4.45;94.88;98433.00;5050866;28;20633;-78
2023/11/21 06:22:45;;;;;;;17.70;10.45;;;;;;;4.83;94.95;98439.88;5056392;28;20111;-77
2023/11/21 06:25:13;;;;;;;25.30;12.48;;;;;;;4.65;94.70;98437.25;5051698;28;20167;-78
2023/11/21 06:27:40;;;;;;;20.63;10.63;;;;;;;4.98;94.52;98437.69;5056392;28;20435;-77
2023/11/21 06:30:06;;;;;;;15.57;10.05;;;;;;;5.65;91.51;98440.00;5060546;28;20396;-78
2023/11/21 06:32:32;;;;;;;14.90;8.93;;;;;;;5.49;91.32;98440.63;5057550;28;20033;-78
2023/11/21 06:35:00;;;;;;;15.63;10.00;;;;;;;5.82;89.88;98448.91;5043305;28;20139;-78
2023/11/21 06:37:29;;;;;;;25.30;11.57;;;;;;;5.49;90.59;98451.22;5051540;28;20048;-77
2023/11/21 06:39:56;;;;;;;19.73;10.27;;;;;;;5.69;90.29;98446.47;5053018;28;20032;-78
2023/11/21 06:42:21;;;;;;;17.08;10.25;;;;;;;6.00;88.73;98446.22;5050568;28;20579;-78
2023/11/21 06:44:48;;;;;;;15.38;9.18;;;;;;;5.97;88.77;98453.78;5046317;28;20504;-77
2023/11/21 06:47:14;;;;;;;18.55;9.27;;;;;;;5.96;88.99;98452.97;5043969;28;20151;-77
2023/11/21 06:49:41;;;;;;;20.52;9.82;;;;;;;6.04;88.78;98462.44;5051954;28;20104;-76
2023/11/21 06:52:06;;;;;;;20.00;9.73;;;;;;;6.26;87.02;98460.84;5053420;28;20485;-76
2023/11/21 06:54:32;;;;;;;20.90;11.43;;;;;;;6.29;87.08;98465.66;5051220;28;20398;-77
2023/11/21 06:56:58;;;;;;;14.70;9.05;;;;;;;6.21;87.52;98468.66;5050391;28;20102;-76
2023/11/21 06:59:24;;;;;;;13.52;9.50;;;;;;;6.17;87.76;98467.53;5040504;28;20064;-76
2023/11/21 07:01:50;;;;;;;12.90;8.80;;;;;;;6.09;88.25;98472.34;5043099;28;20092;-75
2023/11/21 07:04:15;;;;;;;28.65;13.02;;;;;;;5.86;88.97;98481.06;5048959;28;20436;-76
2023/11/21 07:06:41;;;;;;;16.83;9.43;;;;;;;6.13;89.00;98476.16;5047764;28;20539;-76
2023/11/21 07:09:08;;;;;;;18.27;11.10;;;;;;;5.90;89.26;98480.38;5054304;28;20063;-76
2023/11/21 07:11:34;;;;;;;29.05;14.13;;;;;;;5.95;89.88;98491.09;5034691;28;20025;-76
2023/11/21 07:13:59;;;;;;;20.77;11.20;;;;;;;5.87;90.84;98482.69;5050046;28;20039;-78
2023/11/21 07:16:26;;;;;;;19.25;10.60;;;;;;;6.11;89.77;98487.00;5053308;28;20044;-78
2023/11/21 07:18:51;;;;;;;24.15;11.65;;;;;;;6.33;87.93;98482.75;5071534;28;20086;-77
2023/11/21 07:21:17;;;;;;;28.23;15.00;;;;;;;6.22;88.35;98495.97;5036442;28;20040;-76
2023/11/21 07:23:42;;;;;;;15.95;9.30;;;;;;;6.38;88.15;98498.75;5049108;28;20094;-75
2023/11/21 07:26:09;;;;;;;22.05;13.00;;;;;;;6.27;88.06;98504.06;5046636;28;20060;-75
2023/11/21 07:28:35;;;;;;;29.80;15.93;;;;;;;5.97;89.85;98504.09;5049755;28;20587;-76
2023/11/21 07:31:01;;;;;;;28.40;13.73;;;;;;;6.26;88.52;98505.91;5047653;28;20053;-76
2023/11/21 07:33:26;;;;;;;31.95;16.70;;;;;;;5.86;90.16;98504.88;5049965;28;20028;-76
2023/11/21 07:35:52;;;;;;;44.00;19.30;;;;;;;5.82;91.55;98516.94;5050436;28;20029;-76
2023/11/21 07:38:18;;;;;;;44.45;20.27;;;;;;;5.41;93.88;98517.72;5045486;28;20033;-77
2023/11/21 07:40:43;;;;;;;26.45;13.90;;;;;;;5.71;94.42;98528.28;5050027;28;20025;-76
2023/11/21 07:43:09;;;;;;;33.05;17.35;;;;;;;5.77;93.53;98524.75;5040779;28;20554;-77
2023/11/21 07:45:34;;;;;;;42.20;18.13;;;;;;;5.48;94.63;98529.03;5013624;28;20576;-76
2023/11/21 07:48:03;;;;;;;34.83;18.63;;;;;;;5.60;94.35;98531.72;5050349;28;20048;-76
2023/11/21 07:50:28;;;;;;;34.45;19.05;;;;;;;5.64;94.76;98525.75;5050831;28;20029;-76
2023/11/21 07:52:54;;;;;;;38.63;18.95;;;;;;;5.63;94.66;98525.97;5049147;28;20036;-76
2023/11/21 07:55:19;;;;;;;31.40;15.63;;;;;;;6.09;91.35;98535.94;5051178;28;20021;-76
2023/11/21 07:57:45;;;;;;;34.65;15.70;;;;;;;5.95;92.51;98533.47;5048020;28;20037;-77
2023/11/21 08:00:12;;;;;;;28.63;14.27;;;;;;;6.13;91.91;98529.13;5049243;28;20044;-77
2023/11/21 08:02:45;;;;;;;28.67;15.05;;;;;;;6.05;91.89;98532.91;5052247;28;20056;-77
2023/11/21 08:05:12;;;;;;;35.03;18.42;;;;;;;5.97;93.35;98543.84;5046300;28;20142;-76
2023/11/21 08:07:38;;;;;;;38.30;18.23;;;;;;;5.99;94.79;98547.06;5041677;28;20119;-76
2023/11/21 08:10:04;;;;;;;38.38;19.30;;;;;;;5.83;94.41;98553.00;5038758;28;20619;-77
2023/11/21 08:12:30;;;;;;;27.50;14.70;;;;;;;5.83;95.61;98547.69;5041619;28;20104;-75
2023/11/21 08:14:55;;;;;;;46.58;20.15;;;;;;;5.59;96.82;98552.06;5049732;28;20156;-76
2023/11/21 08:17:21;;;;;;;43.60;20.42;;;;;;;5.53;97.94;98568.84;5050530;28;20029;-76
2023/11/21 08:19:49;;;;;;;38.40;20.13;;;;;;;5.41;98.20;98562.69;5047157;28;20134;-78
2023/11/21 08:22:17;;;;;;;52.60;21.38;;;;;;;5.35;99.12;98573.38;5042630;28;20033;-76
2023/11/21 08:24:43;;;;;;;35.90;17.75;;;;;;;5.49;99.38;98580.91;5046033;28;20025;-76
2023/11/21 08:27:09;;;;;;;53.58;22.52;;;;;;;5.42;99.50;98572.25;5045869;28;20039;-76
2023/11/21 08:29:36;;;;;;;46.28;20.00;;;;;;;5.25;99.43;98577.34;5040594;28;20013;-76
2023/11/21 08:32:02;;;;;;;55.58;24.35;;;;;;;5.23;100.00;98586.50;5039206;28;20158;-77
2023/11/21 08:34:28;;;;;;;48.88;22.17;;;;;;;5.03;100.00;98585.91;5042186;28;20045;-78
2023/11/21 08:36:55;;;;;;;46.10;22.63;;;;;;;5.05;100.00;98591.78;5044244;28;20090;-76
2023/11/21 08:39:24;;;;;;;46.08;23.52;;;;;;;5.05;100.00;98579.38;5044227;28;20175;-74
2023/11/21 08:41:50;;;;;;;47.20;20.85;;;;;;;5.11;100.00;98589.06;5044170;28;20036;-77
2023/11/21 08:44:17;;;;;;;44.75;22.30;;;;;;;5.27;100.00;98583.22;5044267;28;20033;-77
2023/11/21 08:46:44;;;;;;;43.65;19.75;;;;;;;5.27;100.00;98577.09;5040095;28;20044;-74
2023/11/21 08:49:11;;;;;;;45.15;20.17;;;;;;;5.20;100.00;98592.25;5039653;28;20074;-76
2023/11/21 08:51:37;;;;;;;47.50;23.02;;;;;;;5.10;100.00;98584.00;5047314;28;20040;-78
2023/11/21 08:54:04;;;;;;;34.25;16.70;;;;;;;5.37;100.00;98588.00;5046327;28;20029;-77
2023/11/21 08:56:29;;;;;;;29.75;16.10;;;;;;;5.74;100.00;98583.47;5037901;28;20025;-77
2023/11/21 08:58:55;;;;;;;31.35;16.45;;;;;;;5.96;97.31;98584.63;5050523;28;20061;-77
2023/11/21 09:01:21;;;;;;;39.78;19.88;;;;;;;5.88;97.71;98593.69;5048632;28;20607;-77
2023/11/21 09:03:49;;;;;;;37.60;16.88;;;;;;;6.01;97.76;98579.44;5050358;28;20067;-75
2023/11/21 09:06:15;;;;;;;32.33;17.05;;;;;;;6.19;96.79;98591.81;5046467;28;20063;-75
2023/11/21 09:08:41;;;;;;;30.20;17.23;;;;;;;6.36;94.89;98598.06;5045336;28;20056;-76
2023/11/21 09:11:08;;;;;;;30.88;16.17;;;;;;;6.31;95.63;98597.97;5050676;28;20061;-77
2023/11/21 09:13:33;;;;;;;43.85;21.20;;;;;;;6.13;96.40;98601.50;5049423;28;20396;-78
2023/11/21 09:16:00;;;;;;;44.22;20.38;;;;;;;6.03;98.76;98609.16;5060111;28;20393;-75
2023/11/21 09:18:25;;;;;;;37.38;20.10;;;;;;;5.89;99.53;98607.72;5042914;28;20055;-77
2023/11/21 09:20:50;;;;;;;32.72;16.48;;;;;;;6.11;99.31;98608.03;5048460;28;20052;-77
2023/11/21 09:23:16;;;;;;;37.65;20.95;;;;;;;5.96;100.00;98611.91;5047232;28;20032;-77
2023/11/21 09:25:42;;;;;;;53.47;22.90;;;;;;;5.85;100.00;98623.25;5046258;28;20033;-77
2023/11/21 09:28:08;;;;;;;44.33;21.15;;;;;;;5.71;100.00;98623.63;5046834;28;20029;-77
2023/11/21 09:30:35;;;;;;;38.38;20.67;;;;;;;5.65;100.00;98620.03;5049068;28;20032;-76
2023/11/21 09:33:01;;;;;;;37.15;18.52;;;;;;;5.69;100.00;98630.97;5050528;28;20025;-77
2023/11/21 09:35:27;;;;;;;33.67;18.02;;;;;;;5.67;100.00;98627.75;5052990;28;20496;-77
2023/11/21 09:37:53;;;;;;;32.17;16.48;;;;;;;5.60;100.00;98635.75;5053605;28;20372;-76
2023/11/21 09:40:22;;;;;;;32.50;17.35;;;;;;;5.73;100.00;98630.31;5056526;28;20033;-77
2023/11/21 09:42:57;;;;;;;26.67;16.00;;;;;;;6.47;98.61;98623.81;5052522;28;20627;-76
2023/11/21 09:45:34;;;;;;;30.17;17.40;;;;;;;6.70;93.59;98616.72;5055005;28;20033;-77
2023/11/21 09:48:00;;;;;;;37.67;17.75;;;;;;;6.65;93.83;98616.59;5051240;28;20033;-77
2023/11/21 09:50:26;;;;;;;29.30;17.25;;;;;;;6.81;92.76;98621.19;5044018;28;20037;-77
2023/11/21 09:53:11;;;;;;;30.10;15.25;;;;;;;6.79;93.67;98628.59;5052621;28;20025;-77
2023/11/21 09:55:38;;;;;;;30.25;15.55;;;;;;;6.57;96.66;98632.03;5053567;28;20037;-76
2023/11/21 09:58:07;;;;;;;27.50;14.82;;;;;;;6.70;94.80;98637.13;5053163;28;20030;-76
2023/11/21 10:00:33;;;;;;;26.83;15.32;;;;;;;6.83;92.88;98634.25;5052820;28;20130;-77
2023/11/21 10:02:59;;;;;;;27.60;13.70;;;;;;;6.91;92.92;98643.69;5054791;28;20444;-76
2023/11/21 10:05:25;;;;;;;40.78;23.00;;;;;;;6.77;94.78;98648.44;5044920;28;20608;-76
2023/11/21 10:07:52;;;;;;;41.97;22.20;;;;;;;6.65;97.16;98639.63;5047330;28;20025;-77
2023/11/21 10:10:20;;;;;;;25.73;14.70;;;;;;;6.80;94.90;98640.81;5034229;28;20037;-76
2023/11/21 10:12:55;;;;;;;37.67;19.85;;;;;;;6.18;97.98;98641.34;5032782;28;20044;-76
2023/11/21 10:15:26;;;;;;;27.48;15.13;;;;;;;6.41;98.12;98640.63;5044236;28;20498;-76
2023/11/21 10:17:53;;;;;;;43.00;23.30;;;;;;;6.49;98.32;98650.91;5038575;28;20022;-77
2023/11/21 10:20:19;;;;;;;30.08;16.48;;;;;;;6.75;95.42;98651.31;5033438;28;20116;-77
2023/11/21 10:22:45;;;;;;;30.15;14.68;;;;;;;6.94;92.64;98651.22;5047130;28;20044;-78
2023/11/21 10:25:14;;;;;;;27.40;14.20;;;;;;;6.88;93.64;98655.56;5055322;28;20028;-77
2023/11/21 10:27:41;;;;;;;28.83;15.50;;;;;;;6.79;94.26;98649.03;5053835;28;20029;-76
2023/11/21 10:30:11;;;;;;;23.63;14.38;;;;;;;7.07;92.23;98651.81;5033923;28;20033;-77
2023/11/21 10:32:40;;;;;;;31.65;17.02;;;;;;;6.93;92.13;98655.69;5048680;28;20043;-76
2023/11/21 10:35:12;;;;;;;24.40;14.55;;;;;;;6.95;93.14;98661.59;5054367;28;20043;-76
2023/11/21 10:37:42;;;;;;;32.05;17.02;;;;;;;6.87;94.02;98663.78;5054419;28;20052;-76
2023/11/21 10:40:11;;;;;;;44.28;17.88;;;;;;;6.55;96.66;98658.75;5052599;28;20031;-76
2023/11/21 10:42:40;;;;;;;24.58;13.48;;;;;;;6.88;93.84;98665.41;5054042;28;20586;-76
2023/11/21 10:45:13;;;;;;;47.20;21.25;;;;;;;6.56;95.83;98673.63;5053205;28;20100;-76
2023/11/21 10:47:39;;;;;;;39.83;18.77;;;;;;;6.57;97.36;98661.19;5053007;28;20048;-77
2023/11/21 10:50:05;;;;;;;26.17;15.18;;;;;;;6.67;96.46;98672.84;5056428;28;20017;-77
2023/11/21 10:52:31;;;;;;;23.45;15.27;;;;;;;6.86;94.98;98678.09;5049307;28;20040;-76
2023/11/21 10:54:58;;;;;;;27.17;14.57;;;;;;;6.99;94.06;98676.00;5052339;28;20112;-77
2023/11/21 10:57:25;;;;;;;36.90;18.50;;;;;;;6.31;97.66;98672.19;5052560;28;20029;-77
2023/11/21 10:59:54;;;;;;;32.90;17.83;;;;;;;6.23;100.00;98672.47;5051142;28;20029;-76
2023/11/21 11:02:27;;;;;;;33.08;19.15;;;;;;;6.71;97.83;98675.84;5050118;28;20029;-77
2023/11/21 11:04:55;;;;;;;28.20;15.45;;;;;;;6.79;95.45;98676.31;5044869;28;20029;-76
2023/11/21 11:07:24;;;;;;;32.45;18.35;;;;;;;6.42;98.22;98680.16;5046104;28;20079;-76
2023/11/21 11:09:50;;;;;;;28.95;16.15;;;;;;;6.53;98.62;98689.97;5063029;28;20067;-75
2023/11/21 11:12:17;;;;;;;30.10;18.40;;;;;;;6.52;98.41;98682.25;5035126;28;20021;-76
2023/11/21 11:14:44;;;;;;;38.28;19.80;;;;;;;6.29;100.00;98685.63;5052958;28;20470;-76
2023/11/21 11:17:10;;;;;;;32.80;18.38;;;;;;;6.70;96.84;98680.38;5040103;28;20048;-77
2023/11/21 11:19:36;;;;;;;32.17;20.65;;;;;;;6.51;97.61;98691.28;5050199;28;20028;-77
2023/11/21 11:22:25;;;;;;;25.67;15.52;;;;;;;6.84;95.63;98688.13;5049169;28;20102;-76
2023/11/21 11:25:05;;;;;;;22.35;12.73;;;;;;;6.33;98.03;98692.13;5046762;28;20056;-76